| time (UTC) | temp F | wind direction | speed MPH | gust MPH | rain 1hr in | rain 24hr in | rain mn in | humidity % | barometer mb |
| 20260505213930 | 60 | 152 | 5.0 | 9.0 | 0.00 | 0.28 | 0.28 | 53 | 1011.2 |
| 20260505213428 | 60 | 187 | 3.0 | 9.0 | 0.00 | 0.28 | 0.28 | 53 | 1011.3 |
| 20260505212924 | 60 | 170 | 3.0 | 11.0 | 0.00 | 0.28 | 0.28 | 59 | 1011.3 |
| 20260505212421 | 58 | 347 | 5.0 | 6.0 | 0.00 | 0.28 | 0.28 | 57 | 1011.3 |
| 20260505211917 | 58 | 241 | 2.0 | 7.0 | 0.00 | 0.28 | 0.28 | 54 | 1011.4 |
| 20260505211415 | 59 | 211 | 3.0 | 4.0 | 0.00 | 0.28 | 0.28 | 59 | 1011.6 |
| 20260505210911 | 59 | 157 | 5.0 | 9.0 | 0.00 | 0.28 | 0.28 | 58 | 1011.6 |
| 20260505210408 | 59 | 151 | 1.0 | 6.0 | 0.00 | 0.28 | 0.28 | 55 | 1011.4 |
| 20260505205905 | 58 | 209 | 5.0 | 12.0 | 0.00 | 0.28 | 0.28 | 60 | 1011.6 |
| 20260505205403 | 57 | 115 | 6.0 | 11.0 | 0.00 | 0.28 | 0.28 | 58 | 1011.6 |
| 20260505204900 | 57 | 215 | 8.0 | 11.0 | 0.00 | 0.28 | 0.28 | 60 | 1011.6 |
| 20260505204357 | 58 | 196 | 4.0 | 10.0 | 0.00 | 0.28 | 0.28 | 62 | 1011.7 |
| 20260505203855 | 59 | 208 | 4.0 | 4.0 | 0.00 | 0.28 | 0.28 | 61 | 1011.7 |
| 20260505203351 | 58 | 184 | 4.0 | 8.0 | 0.00 | 0.28 | 0.28 | 62 | 1011.9 |
| 20260505202847 | 56 | 182 | 7.0 | 10.0 | 0.00 | 0.28 | 0.28 | 65 | 1011.8 |
| 20260505202344 | 58 | 152 | 5.0 | 7.0 | 0.00 | 0.28 | 0.28 | 64 | 1011.7 |
| 20260505201840 | 57 | 63 | 2.0 | 4.0 | 0.00 | 0.28 | 0.28 | 62 | 1011.8 |
| 20260505201338 | 56 | 244 | 3.0 | 3.0 | 0.00 | 0.28 | 0.28 | 66 | 1011.7 |
| 20260505200836 | 55 | 250 | 4.0 | 6.0 | 0.00 | 0.28 | 0.28 | 68 | 1011.4 |
| 20260505200332 | 55 | 222 | 3.0 | 6.0 | 0.00 | 0.28 | 0.28 | 67 | 1011.6 |
| 20260505195828 | 56 | 145 | 5.0 | 5.0 | 0.00 | 0.28 | 0.28 | 68 | 1011.7 |
| 20260505195325 | 55 | 155 | 4.0 | 7.0 | 0.00 | 0.28 | 0.28 | 68 | 1011.8 |
| 20260505194822 | 54 | 221 | 0.0 | 7.0 | 0.00 | 0.28 | 0.28 | 68 | 1011.8 |
| 20260505194320 | 57 | 169 | 4.0 | 5.0 | 0.00 | 0.28 | 0.28 | 68 | 1011.7 |
| 20260505193815 | 55 | 188 | 0.0 | 4.0 | 0.00 | 0.28 | 0.28 | 68 | 1011.8 |
| 20260505193313 | 55 | 130 | 4.0 | 4.0 | 0.00 | 0.28 | 0.28 | 71 | 1011.7 |
| 20260505192811 | 53 | 222 | 3.0 | 6.0 | 0.00 | 0.28 | 0.28 | 71 | 1012.0 |
| 20260505192310 | 54 | 206 | 4.0 | 7.0 | 0.00 | 0.28 | 0.28 | 72 | 1011.7 |
| 20260505191806 | 53 | 171 | 5.0 | 8.0 | 0.00 | 0.28 | 0.28 | 73 | 1011.8 |
| 20260505191304 | 53 | 180 | 2.0 | 8.0 | 0.00 | 0.28 | 0.28 | 73 | 1011.7 |
| 20260505190800 | 53 | 176 | 3.0 | 9.0 | 0.00 | 0.28 | 0.28 | 76 | 1011.8 |
| 20260505190256 | 54 | 208 | 4.0 | 8.0 | 0.00 | 0.28 | 0.28 | 75 | 1012.0 |
| 20260505185752 | 53 | 219 | 4.0 | 9.0 | 0.00 | 0.28 | 0.28 | 73 | 1011.9 |
| 20260505185249 | 52 | 233 | 3.0 | 8.0 | 0.00 | 0.28 | 0.28 | 75 | 1011.9 |
| 20260505184745 | 53 | 229 | 5.0 | 7.0 | 0.00 | 0.28 | 0.28 | 76 | 1012.0 |
| 20260505184242 | 52 | 186 | 3.0 | 5.0 | 0.00 | 0.28 | 0.28 | 80 | 1011.8 |
| 20260505183739 | 51 | 213 | 3.0 | 3.0 | 0.00 | 0.28 | 0.28 | 79 | 1011.9 |
| 20260505183236 | 51 | 204 | 5.0 | 6.0 | 0.00 | 0.28 | 0.28 | 80 | 1011.9 |
| 20260505182733 | 51 | 214 | 3.0 | 6.0 | 0.00 | 0.28 | 0.28 | 80 | 1011.7 |
| 20260505182230 | 51 | 202 | 3.0 | 7.0 | 0.00 | 0.28 | 0.28 | 80 | 1011.7 |
| 20260505181726 | 51 | 190 | 5.0 | 5.0 | 0.00 | 0.28 | 0.28 | 81 | 1011.6 |
| 20260505181224 | 51 | 213 | 4.0 | 5.0 | 0.00 | 0.28 | 0.28 | 81 | 1011.4 |
| 20260505180720 | 50 | 199 | 5.0 | 6.0 | 0.00 | 0.28 | 0.28 | 81 | 1011.4 |
| 20260505180217 | 50 | 225 | 3.0 | 4.0 | 0.00 | 0.28 | 0.28 | 81 | 1011.6 |
| 20260505175713 | 50 | 200 | 3.0 | 3.0 | 0.00 | 0.28 | 0.28 | 82 | 1011.6 |
| 20260505175209 | 50 | 146 | 2.0 | 3.0 | 0.00 | 0.28 | 0.28 | 83 | 1011.4 |
| 20260505174706 | 50 | 139 | 2.0 | 4.0 | 0.00 | 0.28 | 0.28 | 82 | 1011.6 |
| 20260505174203 | 50 | 171 | 2.0 | 4.0 | 0.00 | 0.28 | 0.28 | 82 | 1011.4 |
| 20260505173659 | 50 | 123 | 1.0 | 5.0 | 0.00 | 0.28 | 0.28 | 83 | 1011.1 |
| 20260505173156 | 50 | 159 | 4.0 | 4.0 | 0.00 | 0.28 | 0.28 | 83 | 1010.9 |
| 20260505172653 | 49 | 143 | 3.0 | 4.0 | 0.00 | 0.28 | 0.28 | 84 | 1011.1 |
| 20260505172150 | 49 | 158 | 5.0 | 6.0 | 0.00 | 0.28 | 0.28 | 86 | 1011.0 |
| 20260505171649 | 49 | 152 | 4.0 | 5.0 | 0.00 | 0.28 | 0.28 | 87 | 1011.0 |
| 20260505171147 | 49 | 159 | 5.0 | 7.0 | 0.00 | 0.28 | 0.28 | 88 | 1010.9 |
| 20260505170644 | 49 | 140 | 4.0 | 7.0 | 0.00 | 0.28 | 0.28 | 89 | 1010.8 |
| 20260505170141 | 49 | 139 | 6.0 | 6.0 | 0.00 | 0.28 | 0.28 | 90 | 1010.6 |
| 20260505165641 | 49 | 128 | 4.0 | 7.0 | 0.00 | 0.28 | 0.28 | 91 | 1010.8 |
| 20260505165137 | 48 | 142 | 3.0 | 5.0 | 0.00 | 0.28 | 0.28 | 91 | 1010.8 |
| 20260505164632 | 48 | 127 | 4.0 | 5.0 | 0.00 | 0.28 | 0.28 | 92 | 1010.5 |
| 20260505164130 | 48 | 111 | 3.0 | 5.0 | 0.00 | 0.28 | 0.28 | 92 | 1010.8 |
| 20260505163629 | 48 | 104 | 4.0 | 5.0 | 0.00 | 0.28 | 0.28 | 92 | 1010.6 |
| 20260505163126 | 48 | 124 | 4.0 | 4.0 | 0.00 | 0.28 | 0.28 | 93 | 1010.6 |
| 20260505162623 | 48 | 228 | 2.0 | 2.0 | 0.00 | 0.28 | 0.28 | 93 | 1010.6 |
| 20260505162121 | 48 | 150 | 2.0 | 3.0 | 0.00 | 0.28 | 0.28 | 93 | 1010.5 |
| 20260505161618 | 48 | 173 | 2.0 | 4.0 | 0.00 | 0.28 | 0.28 | 93 | 1010.4 |
| 20260505161115 | 47 | 135 | 2.0 | 4.0 | 0.00 | 0.28 | 0.28 | 93 | 1010.2 |
| 20260505160613 | 47 | 144 | 2.0 | 2.0 | 0.00 | 0.28 | 0.28 | 94 | 1010.3 |
| 20260505160110 | 47 | 198 | 0.0 | 2.0 | 0.00 | 0.28 | 0.28 | 94 | 1010.4 |
| 20260505153049 | 46 | 195 | 0.0 | 0.0 | 0.00 | 0.26 | 0.26 | 94 | 1010.2 |
| 20260505152546 | 46 | 194 | 1.0 | 1.0 | 0.00 | 0.26 | 0.26 | 94 | 1010.1 |
| 20260505152042 | 46 | 263 | 0.0 | 1.0 | 0.00 | 0.26 | 0.26 | 94 | 1010.0 |
| 20260505151537 | 46 | 203 | 0.0 | 2.0 | 0.00 | 0.26 | 0.26 | 94 | 1010.2 |
| 20260505151035 | 46 | 225 | 2.0 | 3.0 | 0.00 | 0.26 | 0.26 | 94 | 1009.8 |
| 20260505150531 | 46 | 258 | 3.0 | 3.0 | 0.00 | 0.26 | 0.26 | 94 | 1010.0 |
| 20260505140456 | 46 | 255 | 2.0 | 3.0 | 0.07 | 0.25 | 0.25 | 94 | 1009.4 |
| 20260505124909 | 47 | 63 | 5.0 | 7.0 | 0.19 | 0.11 | 0.11 | 92 | 1008.8 |
| 20260505124406 | 47 | 69 | 6.0 | 7.0 | 0.14 | 0.09 | 0.09 | 92 | 1008.8 |
| 20260505123902 | 47 | 61 | 7.0 | 10.0 | 0.12 | 0.08 | 0.08 | 92 | 1008.8 |
| 20260505123359 | 46 | 75 | 3.0 | 3.0 | 0.12 | 0.07 | 0.07 | 92 | 1008.3 |
| 20260505122855 | 47 | 65 | 2.0 | 3.0 | 0.05 | 0.06 | 0.06 | 92 | 1008.1 |
| 20260505122352 | 47 | 82 | 1.0 | 2.0 | 0.02 | 0.05 | 0.05 | 92 | 1007.9 |
| 20260505121849 | 47 | 180 | 1.0 | 2.0 | 0.00 | 0.05 | 0.05 | 92 | 1008.0 |
| 20260505121346 | 47 | 264 | 1.0 | 3.0 | 0.00 | 0.05 | 0.05 | 92 | 1007.9 |
| 20260505120842 | 47 | 246 | 0.0 | 1.0 | 0.00 | 0.05 | 0.05 | 92 | 1007.8 |
| 20260505120338 | 47 | 180 | 0.0 | 2.0 | 0.00 | 0.05 | 0.05 | 91 | 1007.8 |
| 20260505115837 | 47 | 176 | 2.0 | 4.0 | 0.00 | 0.05 | 0.05 | 91 | 1007.8 |
| 20260505115334 | 47 | 154 | 2.0 | 4.0 | 0.00 | 0.05 | 0.05 | 91 | 1007.9 |
| 20260505114832 | 47 | 157 | 1.0 | 3.0 | 0.00 | 0.05 | 0.05 | 91 | 1008.0 |
| 20260505114328 | 47 | 139 | 2.0 | 3.0 | 0.00 | 0.05 | 0.05 | 91 | 1008.0 |
| 20260505113825 | 47 | 140 | 1.0 | 3.0 | 0.00 | 0.05 | 0.05 | 91 | 1008.0 |
| 20260505113322 | 47 | 228 | 0.0 | 2.0 | 0.00 | 0.05 | 0.05 | 91 | 1007.9 |
| 20260505112817 | 47 | 294 | 1.0 | 2.0 | 0.02 | 0.05 | 0.05 | 91 | 1008.0 |
| 20260505112315 | 47 | 286 | 0.0 | 0.0 | 0.05 | 0.05 | 0.05 | 90 | 1008.0 |
| 20260505111810 | 47 | 286 | 0.0 | 0.0 | 0.09 | 0.04 | 0.04 | 90 | 1008.1 |
| 20260505111306 | 47 | 300 | 0.0 | 2.0 | 0.12 | 0.04 | 0.04 | 89 | 1008.0 |
| 20260505110802 | 47 | 286 | 2.0 | 3.0 | 0.09 | 0.02 | 0.02 | 88 | 1008.0 |
| 20260505110300 | 47 | 345 | 0.0 | 2.0 | 0.05 | 0.01 | 0.01 | 87 | 1007.9 |
| 20260505101734 | 48 | 157 | 0.0 | 3.0 | 0.00 | 0.00 | 0.00 | 83 | 1007.9 |
| 20260505101230 | 48 | 152 | 4.0 | 5.0 | 0.00 | 0.00 | 0.00 | 83 | 1007.8 |
| 20260505100726 | 48 | 147 | 5.0 | 6.0 | 0.00 | 0.00 | 0.00 | 83 | 1007.8 |
| 20260505100223 | 48 | 146 | 4.0 | 5.0 | 0.00 | 0.00 | 0.00 | 83 | 1007.8 |
| 20260505095718 | 48 | 157 | 0.0 | 1.0 | 0.00 | 0.00 | 0.00 | 83 | 1007.9 |
| 20260505095217 | 49 | 200 | 1.0 | 3.0 | 0.00 | 0.00 | 0.00 | 81 | 1007.9 |
| 20260505094712 | 48 | 173 | 3.0 | 5.0 | 0.00 | 0.00 | 0.00 | 79 | 1007.9 |
| 20260505094209 | 48 | 192 | 4.0 | 5.0 | 0.00 | 0.00 | 0.00 | 81 | 1007.7 |
| 20260505093705 | 48 | 199 | 2.0 | 4.0 | 0.00 | 0.00 | 0.00 | 82 | 1007.7 |
| 20260505093203 | 48 | 206 | 3.0 | 4.0 | 0.00 | 0.00 | 0.00 | 81 | 1008.0 |
| 20260505092659 | 49 | 180 | 0.0 | 3.0 | 0.00 | 0.00 | 0.00 | 80 | 1008.0 |
| 20260505092158 | 48 | 180 | 0.0 | 3.0 | 0.00 | 0.00 | 0.00 | 79 | 1008.0 |
| 20260505091655 | 48 | 225 | 2.0 | 4.0 | 0.00 | 0.00 | 0.00 | 79 | 1008.1 |
| 20260505091153 | 49 | 114 | 0.0 | 2.0 | 0.00 | 0.00 | 0.00 | 79 | 1008.0 |
| 20260505090650 | 49 | 110 | 2.0 | 3.0 | 0.00 | 0.00 | 0.00 | 78 | 1008.1 |
| 20260505090148 | 49 | 101 | 2.0 | 6.0 | 0.00 | 0.00 | 0.00 | 77 | 1008.4 |
| 20260505085645 | 49 | 137 | 3.0 | 7.0 | 0.00 | 0.00 | 0.00 | 75 | 1008.1 |
| 20260505085143 | 49 | 144 | 3.0 | 4.0 | 0.00 | 0.00 | 0.00 | 75 | 1008.0 |
| 20260505084641 | 49 | 162 | 3.0 | 5.0 | 0.00 | 0.00 | 0.00 | 75 | 1008.5 |
| 20260505084139 | 49 | 125 | 2.0 | 3.0 | 0.00 | 0.00 | 0.00 | 77 | 1008.4 |
| 20260505083636 | 49 | 128 | 2.0 | 5.0 | 0.00 | 0.00 | 0.00 | 77 | 1008.5 |
| 20260505083132 | 49 | 155 | 3.0 | 4.0 | 0.00 | 0.00 | 0.00 | 77 | 1008.5 |
| 20260505082628 | 49 | 147 | 5.0 | 6.0 | 0.00 | 0.00 | 0.00 | 77 | 1008.5 |
| 20260505082125 | 49 | 158 | 5.0 | 6.0 | 0.00 | 0.00 | 0.00 | 77 | 1008.6 |
| 20260505081621 | 49 | 144 | 7.0 | 9.0 | 0.00 | 0.00 | 0.00 | 78 | 1008.6 |
| 20260505081119 | 48 | 148 | 5.0 | 8.0 | 0.00 | 0.00 | 0.00 | 78 | 1008.5 |
| 20260505080615 | 48 | 148 | 7.0 | 9.0 | 0.00 | 0.00 | 0.00 | 78 | 1008.4 |
| 20260505080112 | 48 | 147 | 9.0 | 11.0 | 0.00 | 0.00 | 0.00 | 78 | 1008.5 |
| 20260505075608 | 49 | 154 | 7.0 | 9.0 | 0.00 | 0.00 | 0.00 | 77 | 1008.4 |
| 20260505075105 | 49 | 153 | 8.0 | 12.0 | 0.00 | 0.00 | 0.00 | 77 | 1008.8 |
| 20260505074601 | 49 | 153 | 8.0 | 11.0 | 0.00 | 0.00 | 0.00 | 77 | 1008.6 |
| 20260505074059 | 49 | 151 | 5.0 | 14.0 | 0.00 | 0.00 | 0.00 | 76 | 1008.6 |
| 20260505073556 | 49 | 178 | 4.0 | 15.0 | 0.00 | 0.00 | 0.00 | 76 | 1008.8 |
| 20260505073055 | 49 | 161 | 5.0 | 12.0 | 0.00 | 0.00 | 0.00 | 78 | 1008.9 |
| 20260505072550 | 49 | 173 | 9.0 | 14.0 | 0.00 | 0.00 | 0.00 | 78 | 1008.9 |
| 20260505072047 | 49 | 135 | 6.0 | 11.0 | 0.00 | 0.00 | 0.00 | 78 | 1008.7 |
| 20260505071542 | 49 | 160 | 8.0 | 11.0 | 0.00 | 0.00 | 0.00 | 78 | 1008.8 |
| 20260505071041 | 48 | 157 | 7.0 | 13.0 | 0.00 | 0.00 | 0.00 | 78 | 1008.5 |
| 20260505070537 | 48 | 154 | 8.0 | 11.0 | 0.00 | 0.00 | 0.00 | 78 | 1008.6 |
| 20260505070033 | 48 | 129 | 10.0 | 12.0 | 0.00 | 0.00 | 0.00 | 78 | 1008.5 |
| 20260505065529 | 49 | 154 | 9.0 | 12.0 | 0.00 | 0.03 | 0.03 | 78 | 1008.8 |
| 20260505065026 | 49 | 152 | 5.0 | 9.0 | 0.00 | 0.03 | 0.03 | 78 | 1008.6 |
| 20260505064523 | 48 | 120 | 10.0 | 12.0 | 0.00 | 0.03 | 0.03 | 79 | 1008.4 |
| 20260505064021 | 48 | 131 | 8.0 | 15.0 | 0.00 | 0.03 | 0.03 | 79 | 1008.3 |
| 20260505063519 | 49 | 145 | 10.0 | 16.0 | 0.00 | 0.03 | 0.03 | 79 | 1008.1 |
| 20260505063014 | 49 | 158 | 11.0 | 18.0 | 0.00 | 0.03 | 0.03 | 79 | 1008.0 |
| 20260505062511 | 49 | 151 | 8.0 | 14.0 | 0.00 | 0.03 | 0.03 | 80 | 1008.3 |
| 20260505062008 | 49 | 144 | 8.0 | 13.0 | 0.00 | 0.03 | 0.03 | 80 | 1008.1 |
| 20260505061506 | 49 | 156 | 6.0 | 12.0 | 0.00 | 0.03 | 0.03 | 81 | 1008.3 |
| 20260505061004 | 49 | 161 | 6.0 | 12.0 | 0.00 | 0.03 | 0.03 | 81 | 1008.4 |
| 20260505060501 | 49 | 130 | 11.0 | 13.0 | 0.00 | 0.03 | 0.03 | 81 | 1008.5 |
| 20260505055957 | 49 | 130 | 10.0 | 11.0 | 0.00 | 0.03 | 0.03 | 82 | 1008.3 |
| 20260505055453 | 49 | 135 | 9.0 | 10.0 | 0.00 | 0.03 | 0.03 | 82 | 1008.3 |
| 20260505054950 | 49 | 149 | 8.0 | 13.0 | 0.00 | 0.03 | 0.03 | 83 | 1008.4 |
| 20260505054447 | 49 | 134 | 7.0 | 12.0 | 0.00 | 0.03 | 0.03 | 83 | 1008.1 |
| 20260505053945 | 49 | 133 | 9.0 | 15.0 | 0.00 | 0.03 | 0.03 | 83 | 1008.4 |
| 20260505053442 | 49 | 146 | 10.0 | 15.0 | 0.00 | 0.03 | 0.03 | 84 | 1008.4 |
| 20260505052938 | 49 | 122 | 10.0 | 11.0 | 0.00 | 0.03 | 0.03 | 83 | 1008.1 |
| 20260505052436 | 49 | 129 | 8.0 | 9.0 | 0.00 | 0.03 | 0.03 | 82 | 1008.3 |
| 20260505051933 | 49 | 132 | 5.0 | 8.0 | 0.00 | 0.03 | 0.03 | 80 | 1007.9 |
| 20260505051429 | 49 | 152 | 6.0 | 9.0 | 0.00 | 0.03 | 0.03 | 79 | 1008.1 |
| 20260505050928 | 49 | 151 | 5.0 | 8.0 | 0.00 | 0.03 | 0.03 | 78 | 1007.9 |
| 20260505050426 | 49 | 157 | 5.0 | 11.0 | 0.00 | 0.03 | 0.03 | 78 | 1008.0 |
| 20260505041353 | 50 | 156 | 9.0 | 11.0 | 0.00 | 0.01 | 0.01 | 76 | 1008.3 |
| 20260505040850 | 50 | 149 | 8.0 | 9.0 | 0.00 | 0.01 | 0.01 | 75 | 1008.3 |
| 20260505040348 | 50 | 137 | 5.0 | 8.0 | 0.00 | 0.01 | 0.01 | 75 | 1008.4 |
| 20260505035844 | 50 | 134 | 7.0 | 11.0 | 0.02 | 0.01 | 0.01 | 75 | 1008.1 |
| 20260505035340 | 50 | 131 | 8.0 | 8.0 | 0.02 | 0.01 | 0.01 | 74 | 1008.1 |
| 20260505034838 | 51 | 140 | 12.0 | 13.0 | 0.05 | 0.01 | 0.01 | 71 | 1008.1 |
| 20260505034334 | 51 | 144 | 6.0 | 15.0 | 0.02 | 0.00 | 0.00 | 70 | 1008.0 |
| 20260505033831 | 51 | 144 | 10.0 | 16.0 | 0.00 | 0.00 | 0.00 | 68 | 1007.9 |
| 20260505033328 | 52 | 161 | 6.0 | 12.0 | 0.00 | 0.00 | 0.00 | 64 | 1008.0 |
| 20260505032827 | 53 | 157 | 3.0 | 7.0 | 0.00 | 0.00 | 0.00 | 61 | 1008.1 |
| 20260505032322 | 53 | 163 | 6.0 | 11.0 | 0.00 | 0.00 | 0.00 | 60 | 1007.9 |
| 20260505031820 | 53 | 154 | 7.0 | 10.0 | 0.00 | 0.00 | 0.00 | 61 | 1007.9 |
| 20260505031316 | 53 | 160 | 10.0 | 10.0 | 0.00 | 0.00 | 0.00 | 61 | 1007.7 |
| 20260505030814 | 52 | 175 | 5.0 | 11.0 | 0.00 | 0.00 | 0.00 | 61 | 1007.6 |
| 20260505030310 | 52 | 160 | 9.0 | 12.0 | 0.00 | 0.00 | 0.00 | 61 | 1007.6 |
| 20260505025805 | 52 | 150 | 12.0 | 17.0 | 0.00 | 0.00 | 0.00 | 61 | 1007.7 |
| 20260505025304 | 53 | 171 | 8.0 | 12.0 | 0.00 | 0.00 | 0.00 | 61 | 1007.6 |
| 20260505024801 | 53 | 156 | 7.0 | 13.0 | 0.00 | 0.00 | 0.00 | 61 | 1007.6 |
| 20260505024258 | 53 | 163 | 10.0 | 17.0 | 0.00 | 0.00 | 0.00 | 61 | 1007.3 |
| 20260505023755 | 53 | 169 | 15.0 | 18.0 | 0.00 | 0.00 | 0.00 | 61 | 1007.3 |
| 20260505023252 | 52 | 163 | 9.0 | 15.0 | 0.00 | 0.00 | 0.00 | 60 | 1007.1 |
| 20260505022749 | 52 | 169 | 12.0 | 20.0 | 0.00 | 0.00 | 0.00 | 60 | 1007.2 |
| 20260505022247 | 52 | 207 | 6.0 | 18.0 | 0.00 | 0.00 | 0.00 | 60 | 1007.1 |
| 20260505021743 | 52 | 153 | 13.0 | 23.0 | 0.00 | 0.00 | 0.00 | 60 | 1007.0 |
| 20260505021240 | 52 | 197 | 6.0 | 20.0 | 0.00 | 0.00 | 0.00 | 60 | 1007.0 |
| 20260505020736 | 52 | 163 | 26.0 | 26.0 | 0.00 | 0.00 | 0.00 | 60 | 1007.1 |
| 20260505020231 | 52 | 156 | 20.0 | 22.0 | 0.00 | 0.00 | 0.00 | 60 | 1007.0 |
| 20260505015729 | 52 | 169 | 6.0 | 17.0 | 0.00 | 0.00 | 0.00 | 60 | 1007.2 |
| 20260505015226 | 52 | 158 | 5.0 | 15.0 | 0.00 | 0.00 | 0.00 | 60 | 1007.6 |
| 20260505014723 | 52 | 135 | 8.0 | 17.0 | 0.00 | 0.00 | 0.00 | 61 | 1007.5 |
| 20260505014220 | 52 | 168 | 8.0 | 24.0 | 0.00 | 0.00 | 0.00 | 60 | 1007.5 |
| 20260505013717 | 52 | 181 | 5.0 | 19.0 | 0.00 | 0.00 | 0.00 | 60 | 1007.5 |
| 20260505013214 | 53 | 175 | 6.0 | 20.0 | 0.00 | 0.00 | 0.00 | 60 | 1007.5 |
| 20260505012712 | 53 | 160 | 13.0 | 17.0 | 0.00 | 0.00 | 0.00 | 60 | 1007.7 |
| 20260505012209 | 53 | 139 | 4.0 | 12.0 | 0.00 | 0.00 | 0.00 | 61 | 1007.7 |
| 20260505011705 | 53 | 188 | 6.0 | 19.0 | 0.00 | 0.00 | 0.00 | 61 | 1007.7 |
| 20260505011202 | 53 | 195 | 12.0 | 18.0 | 0.00 | 0.00 | 0.00 | 61 | 1008.0 |
| 20260505010657 | 54 | 158 | 7.0 | 11.0 | 0.00 | 0.00 | 0.00 | 59 | 1008.3 |
| 20260505010154 | 53 | 167 | 10.0 | 18.0 | 0.00 | 0.00 | 0.00 | 60 | 1007.9 |
| 20260505005650 | 53 | 160 | 13.0 | 21.0 | 0.00 | 0.00 | 0.00 | 60 | 1007.9 |
| 20260505005148 | 53 | 162 | 18.0 | 20.0 | 0.00 | 0.00 | 0.00 | 60 | 1007.9 |
| 20260505004645 | 53 | 179 | 5.0 | 17.0 | 0.00 | 0.00 | 0.00 | 62 | 1008.0 |
| 20260505004141 | 53 | 170 | 13.0 | 18.0 | 0.00 | 0.00 | 0.00 | 62 | 1007.9 |
| 20260505003638 | 53 | 179 | 9.0 | 22.0 | 0.00 | 0.00 | 0.00 | 64 | 1007.9 |
| 20260505003136 | 53 | 137 | 9.0 | 23.0 | 0.00 | 0.00 | 0.00 | 61 | 1007.9 |
| 20260505002632 | 53 | 150 | 8.0 | 24.0 | 0.00 | 0.00 | 0.00 | 62 | 1008.4 |
| 20260505002130 | 53 | 141 | 11.0 | 26.0 | 0.00 | 0.00 | 0.00 | 62 | 1008.1 |
| 20260505001627 | 53 | 151 | 4.0 | 26.0 | 0.00 | 0.00 | 0.00 | 65 | 1007.9 |
| 20260505001124 | 53 | 160 | 14.0 | 24.0 | 0.00 | 0.00 | 0.00 | 64 | 1007.7 |
| 20260505000621 | 53 | 150 | 14.0 | 25.0 | 0.00 | 0.00 | 0.00 | 65 | 1008.0 |
| 20260505000119 | 53 | 193 | 13.0 | 26.0 | 0.00 | 0.00 | 0.00 | 65 | 1007.9 |
| 20260504235615 | 54 | 180 | 9.0 | 19.0 | 0.00 | 0.00 | 0.00 | 65 | 1007.9 |
| 20260504235112 | 53 | 163 | 7.0 | 18.0 | 0.00 | 0.00 | 0.00 | 67 | 1007.8 |
| 20260504234609 | 53 | 141 | 5.0 | 18.0 | 0.00 | 0.00 | 0.00 | 67 | 1007.9 |
| 20260504234106 | 53 | 160 | 11.0 | 21.0 | 0.00 | 0.00 | 0.00 | 68 | 1008.3 |
| 20260504233601 | 54 | 166 | 15.0 | 17.0 | 0.00 | 0.00 | 0.00 | 65 | 1008.3 |
| 20260504233058 | 53 | 151 | 10.0 | 22.0 | 0.00 | 0.00 | 0.00 | 67 | 1008.1 |
| 20260504232556 | 54 | 176 | 8.0 | 21.0 | 0.00 | 0.00 | 0.00 | 64 | 1007.9 |
| 20260504232053 | 54 | 173 | 17.0 | 27.0 | 0.00 | 0.00 | 0.00 | 64 | 1007.5 |
| 20260504231549 | 53 | 162 | 13.0 | 27.0 | 0.00 | 0.00 | 0.00 | 68 | 1007.2 |
| 20260504231045 | 53 | 158 | 27.0 | 30.0 | 0.00 | 0.00 | 0.00 | 70 | 1007.3 |
| 20260504230541 | 54 | 141 | 15.0 | 32.0 | 0.00 | 0.00 | 0.00 | 69 | 1007.3 |
| 20260504230041 | 54 | 155 | 23.0 | 34.0 | 0.00 | 0.00 | 0.00 | 62 | 1007.2 |
| 20260504225537 | 55 | 158 | 17.0 | 31.0 | 0.00 | 0.00 | 0.00 | 63 | 1007.3 |
| 20260504225035 | 55 | 143 | 14.0 | 25.0 | 0.00 | 0.00 | 0.00 | 66 | 1007.1 |
| 20260504224531 | 55 | 160 | 16.0 | 34.0 | 0.00 | 0.00 | 0.00 | 61 | 1007.3 |
| 20260504224029 | 56 | 133 | 23.0 | 34.0 | 0.00 | 0.00 | 0.00 | 53 | 1007.3 |
| 20260504223525 | 57 | 132 | 21.0 | 39.0 | 0.00 | 0.00 | 0.00 | 50 | 1007.5 |
| 20260504223021 | 58 | 128 | 22.0 | 27.0 | 0.00 | 0.00 | 0.00 | 50 | 1007.5 |
| 20260504222518 | 58 | 111 | 19.0 | 25.0 | 0.00 | 0.00 | 0.00 | 48 | 1007.3 |
| 20260504222015 | 57 | 115 | 24.0 | 29.0 | 0.00 | 0.00 | 0.00 | 50 | 1007.2 |
| 20260504221513 | 57 | 94 | 17.0 | 25.0 | 0.00 | 0.00 | 0.00 | 51 | 1007.2 |
| 20260504221009 | 56 | 109 | 20.0 | 28.0 | 0.00 | 0.00 | 0.00 | 52 | 1007.0 |
| 20260504220506 | 56 | 94 | 20.0 | 34.0 | 0.00 | 0.00 | 0.00 | 53 | 1007.2 |
| 20260504220003 | 57 | 76 | 24.0 | 34.0 | 0.00 | 0.00 | 0.00 | 48 | 1007.3 |
| 20260504215459 | 58 | 101 | 28.0 | 35.0 | 0.00 | 0.00 | 0.00 | 46 | 1007.3 |
| 20260504214956 | 59 | 86 | 13.0 | 33.0 | 0.00 | 0.00 | 0.00 | 46 | 1007.2 |
| 20260504214452 | 62 | 334 | 9.0 | 9.0 | 0.00 | 0.00 | 0.00 | 44 | 1006.9 |